sensor_id;sensor_type;location;lat;lon;timestamp;P1;durP1;ratioP1;P2;durP2;ratioP2
5811;SDS011;2932;52.400;9.558;2023-12-20T00:01:19;5.57;;;3.63;;
5811;SDS011;2932;52.400;9.558;2023-12-20T00:03:45;13.47;;;4.60;;
5811;SDS011;2932;52.400;9.558;2023-12-20T00:06:10;6.70;;;3.07;;
5811;SDS011;2932;52.400;9.558;2023-12-20T00:08:36;4.43;;;2.90;;
5811;SDS011;2932;52.400;9.558;2023-12-20T00:11:01;6.73;;;3.43;;
5811;SDS011;2932;52.400;9.558;2023-12-20T00:13:26;7.40;;;3.47;;
5811;SDS011;2932;52.400;9.558;2023-12-20T00:15:52;7.40;;;3.03;;
5811;SDS011;2932;52.400;9.558;2023-12-20T00:18:17;7.80;;;2.73;;
5811;SDS011;2932;52.400;9.558;2023-12-20T00:20:42;5.17;;;3.07;;
5811;SDS011;2932;52.400;9.558;2023-12-20T00:23:08;9.20;;;3.87;;
5811;SDS011;2932;52.400;9.558;2023-12-20T00:25:33;9.57;;;3.53;;
5811;SDS011;2932;52.400;9.558;2023-12-20T00:28:00;7.77;;;3.37;;
5811;SDS011;2932;52.400;9.558;2023-12-20T00:30:25;6.87;;;3.33;;
5811;SDS011;2932;52.400;9.558;2023-12-20T00:32:50;10.23;;;3.30;;
5811;SDS011;2932;52.400;9.558;2023-12-20T00:35:16;13.57;;;3.10;;
5811;SDS011;2932;52.400;9.558;2023-12-20T00:37:44;9.30;;;3.17;;
5811;SDS011;2932;52.400;9.558;2023-12-20T00:40:10;7.63;;;2.60;;
5811;SDS011;2932;52.400;9.558;2023-12-20T00:42:36;7.87;;;2.00;;
5811;SDS011;2932;52.400;9.558;2023-12-20T00:45:01;7.40;;;2.40;;
5811;SDS011;2932;52.400;9.558;2023-12-20T00:47:27;7.90;;;1.80;;
5811;SDS011;2932;52.400;9.558;2023-12-20T00:49:52;8.00;;;2.43;;
5811;SDS011;2932;52.400;9.558;2023-12-20T00:52:18;10.33;;;2.23;;
5811;SDS011;2932;52.400;9.558;2023-12-20T00:54:44;9.17;;;1.63;;
5811;SDS011;2932;52.400;9.558;2023-12-20T00:57:09;6.87;;;1.40;;
5811;SDS011;2932;52.400;9.558;2023-12-20T00:59:35;4.57;;;1.43;;
5811;SDS011;2932;52.400;9.558;2023-12-20T01:02:01;8.20;;;2.20;;
5811;SDS011;2932;52.400;9.558;2023-12-20T01:04:26;4.13;;;1.93;;
5811;SDS011;2932;52.400;9.558;2023-12-20T01:06:52;7.13;;;1.93;;
5811;SDS011;2932;52.400;9.558;2023-12-20T01:09:18;5.47;;;1.97;;
5811;SDS011;2932;52.400;9.558;2023-12-20T01:11:43;4.70;;;2.10;;
5811;SDS011;2932;52.400;9.558;2023-12-20T01:14:09;4.57;;;1.80;;
5811;SDS011;2932;52.400;9.558;2023-12-20T01:16:34;6.57;;;2.20;;
5811;SDS011;2932;52.400;9.558;2023-12-20T01:19:00;9.33;;;2.37;;
5811;SDS011;2932;52.400;9.558;2023-12-20T01:21:25;6.50;;;2.10;;
5811;SDS011;2932;52.400;9.558;2023-12-20T01:23:50;6.77;;;1.83;;
5811;SDS011;2932;52.400;9.558;2023-12-20T01:26:16;6.00;;;1.57;;
5811;SDS011;2932;52.400;9.558;2023-12-20T01:28:41;8.90;;;1.70;;
5811;SDS011;2932;52.400;9.558;2023-12-20T01:31:07;6.53;;;1.80;;
5811;SDS011;2932;52.400;9.558;2023-12-20T01:33:33;8.93;;;2.07;;
5811;SDS011;2932;52.400;9.558;2023-12-20T01:35:58;6.17;;;1.50;;
5811;SDS011;2932;52.400;9.558;2023-12-20T01:38:23;5.90;;;1.60;;
5811;SDS011;2932;52.400;9.558;2023-12-20T01:40:49;7.63;;;2.37;;
5811;SDS011;2932;52.400;9.558;2023-12-20T01:43:17;9.73;;;1.80;;
5811;SDS011;2932;52.400;9.558;2023-12-20T01:45:42;5.07;;;1.40;;
5811;SDS011;2932;52.400;9.558;2023-12-20T01:48:08;5.53;;;1.50;;
5811;SDS011;2932;52.400;9.558;2023-12-20T01:50:35;8.60;;;2.23;;
5811;SDS011;2932;52.400;9.558;2023-12-20T01:53:03;7.87;;;1.83;;
5811;SDS011;2932;52.400;9.558;2023-12-20T01:55:31;11.17;;;1.80;;
5811;SDS011;2932;52.400;9.558;2023-12-20T01:57:59;5.93;;;1.60;;
5811;SDS011;2932;52.400;9.558;2023-12-20T02:00:25;5.73;;;1.70;;
5811;SDS011;2932;52.400;9.558;2023-12-20T02:02:53;6.77;;;2.10;;
5811;SDS011;2932;52.400;9.558;2023-12-20T02:05:20;5.77;;;1.23;;
5811;SDS011;2932;52.400;9.558;2023-12-20T02:07:46;7.57;;;2.00;;
5811;SDS011;2932;52.400;9.558;2023-12-20T02:10:11;7.87;;;1.77;;
5811;SDS011;2932;52.400;9.558;2023-12-20T02:12:37;5.10;;;1.60;;
5811;SDS011;2932;52.400;9.558;2023-12-20T02:15:03;10.27;;;1.83;;
5811;SDS011;2932;52.400;9.558;2023-12-20T02:17:30;10.23;;;2.13;;
5811;SDS011;2932;52.400;9.558;2023-12-20T02:19:56;8.33;;;2.30;;
5811;SDS011;2932;52.400;9.558;2023-12-20T02:22:21;7.40;;;1.83;;
5811;SDS011;2932;52.400;9.558;2023-12-20T02:24:47;9.97;;;2.20;;
5811;SDS011;2932;52.400;9.558;2023-12-20T02:27:12;9.20;;;2.43;;
5811;SDS011;2932;52.400;9.558;2023-12-20T02:29:37;5.27;;;2.20;;
5811;SDS011;2932;52.400;9.558;2023-12-20T02:32:03;7.03;;;2.27;;
5811;SDS011;2932;52.400;9.558;2023-12-20T02:34:28;7.57;;;2.20;;
5811;SDS011;2932;52.400;9.558;2023-12-20T02:36:54;8.50;;;2.20;;
5811;SDS011;2932;52.400;9.558;2023-12-20T02:39:20;9.80;;;2.90;;
5811;SDS011;2932;52.400;9.558;2023-12-20T02:41:48;7.90;;;2.93;;
5811;SDS011;2932;52.400;9.558;2023-12-20T02:44:13;13.07;;;2.83;;
5811;SDS011;2932;52.400;9.558;2023-12-20T02:46:39;6.50;;;2.53;;
5811;SDS011;2932;52.400;9.558;2023-12-20T02:49:04;7.83;;;2.60;;
5811;SDS011;2932;52.400;9.558;2023-12-20T02:51:30;6.73;;;2.50;;
5811;SDS011;2932;52.400;9.558;2023-12-20T02:53:56;7.27;;;2.60;;
5811;SDS011;2932;52.400;9.558;2023-12-20T02:56:21;5.07;;;1.90;;
5811;SDS011;2932;52.400;9.558;2023-12-20T02:58:46;9.43;;;2.60;;
5811;SDS011;2932;52.400;9.558;2023-12-20T03:01:11;4.93;;;2.00;;
5811;SDS011;2932;52.400;9.558;2023-12-20T03:03:37;5.77;;;2.07;;
5811;SDS011;2932;52.400;9.558;2023-12-20T03:06:05;8.17;;;2.70;;
5811;SDS011;2932;52.400;9.558;2023-12-20T03:08:30;7.17;;;2.00;;
5811;SDS011;2932;52.400;9.558;2023-12-20T03:10:56;6.13;;;1.97;;
5811;SDS011;2932;52.400;9.558;2023-12-20T03:13:21;6.53;;;1.83;;
5811;SDS011;2932;52.400;9.558;2023-12-20T03:15:46;7.73;;;1.60;;
5811;SDS011;2932;52.400;9.558;2023-12-20T03:18:12;8.27;;;1.80;;
5811;SDS011;2932;52.400;9.558;2023-12-20T03:20:37;8.23;;;1.50;;
5811;SDS011;2932;52.400;9.558;2023-12-20T03:23:03;4.17;;;1.50;;
5811;SDS011;2932;52.400;9.558;2023-12-20T03:25:28;8.13;;;0.90;;
5811;SDS011;2932;52.400;9.558;2023-12-20T03:27:54;3.03;;;1.13;;
5811;SDS011;2932;52.400;9.558;2023-12-20T03:30:19;4.40;;;1.20;;
5811;SDS011;2932;52.400;9.558;2023-12-20T03:32:45;6.07;;;0.80;;
5811;SDS011;2932;52.400;9.558;2023-12-20T03:35:11;4.13;;;0.90;;
5811;SDS011;2932;52.400;9.558;2023-12-20T03:37:37;6.60;;;1.13;;
5811;SDS011;2932;52.400;9.558;2023-12-20T03:40:02;5.63;;;1.17;;
5811;SDS011;2932;52.400;9.558;2023-12-20T03:42:28;3.00;;;1.10;;
5811;SDS011;2932;52.400;9.558;2023-12-20T03:44:53;6.27;;;1.03;;
5811;SDS011;2932;52.400;9.558;2023-12-20T03:47:19;4.43;;;1.37;;
5811;SDS011;2932;52.400;9.558;2023-12-20T03:49:44;3.83;;;1.07;;
5811;SDS011;2932;52.400;9.558;2023-12-20T03:52:09;7.57;;;1.50;;
5811;SDS011;2932;52.400;9.558;2023-12-20T03:54:35;6.13;;;1.60;;
5811;SDS011;2932;52.400;9.558;2023-12-20T03:57:00;7.63;;;1.43;;
5811;SDS011;2932;52.400;9.558;2023-12-20T03:59:26;6.73;;;1.70;;
5811;SDS011;2932;52.400;9.558;2023-12-20T04:01:51;8.33;;;1.53;;
5811;SDS011;2932;52.400;9.558;2023-12-20T04:04:16;4.57;;;1.50;;
5811;SDS011;2932;52.400;9.558;2023-12-20T04:06:42;4.33;;;1.70;;
5811;SDS011;2932;52.400;9.558;2023-12-20T04:09:08;7.97;;;1.30;;
5811;SDS011;2932;52.400;9.558;2023-12-20T04:11:37;4.80;;;1.20;;
5811;SDS011;2932;52.400;9.558;2023-12-20T04:14:02;7.17;;;1.30;;
5811;SDS011;2932;52.400;9.558;2023-12-20T04:16:27;3.77;;;1.30;;
5811;SDS011;2932;52.400;9.558;2023-12-20T04:18:53;6.37;;;1.73;;
5811;SDS011;2932;52.400;9.558;2023-12-20T04:21:18;7.27;;;1.23;;
5811;SDS011;2932;52.400;9.558;2023-12-20T04:23:43;5.30;;;1.40;;
5811;SDS011;2932;52.400;9.558;2023-12-20T04:26:09;6.57;;;1.60;;
5811;SDS011;2932;52.400;9.558;2023-12-20T04:28:37;7.20;;;1.40;;
5811;SDS011;2932;52.400;9.558;2023-12-20T04:31:02;6.57;;;2.00;;
5811;SDS011;2932;52.400;9.558;2023-12-20T04:33:28;7.30;;;1.60;;
5811;SDS011;2932;52.400;9.558;2023-12-20T04:35:53;4.73;;;1.60;;
5811;SDS011;2932;52.400;9.558;2023-12-20T04:38:18;7.30;;;1.40;;
5811;SDS011;2932;52.400;9.558;2023-12-20T04:40:43;7.03;;;1.70;;
5811;SDS011;2932;52.400;9.558;2023-12-20T04:43:13;15.40;;;2.67;;
5811;SDS011;2932;52.400;9.558;2023-12-20T04:45:38;6.30;;;1.73;;
5811;SDS011;2932;52.400;9.558;2023-12-20T04:48:03;6.13;;;2.03;;
5811;SDS011;2932;52.400;9.558;2023-12-20T04:50:29;6.63;;;1.80;;
5811;SDS011;2932;52.400;9.558;2023-12-20T04:52:55;11.67;;;2.13;;
5811;SDS011;2932;52.400;9.558;2023-12-20T04:55:20;7.97;;;2.57;;
5811;SDS011;2932;52.400;9.558;2023-12-20T04:57:45;9.17;;;2.63;;
5811;SDS011;2932;52.400;9.558;2023-12-20T05:00:11;7.67;;;2.40;;
5811;SDS011;2932;52.400;9.558;2023-12-20T05:02:37;11.23;;;2.37;;
5811;SDS011;2932;52.400;9.558;2023-12-20T05:05:02;13.87;;;2.83;;
5811;SDS011;2932;52.400;9.558;2023-12-20T05:07:28;5.57;;;1.67;;
5811;SDS011;2932;52.400;9.558;2023-12-20T05:09:53;8.83;;;2.27;;
5811;SDS011;2932;52.400;9.558;2023-12-20T05:12:19;6.50;;;2.00;;
5811;SDS011;2932;52.400;9.558;2023-12-20T05:14:44;10.00;;;2.00;;
5811;SDS011;2932;52.400;9.558;2023-12-20T05:17:11;7.00;;;2.10;;
5811;SDS011;2932;52.400;9.558;2023-12-20T05:19:36;7.23;;;2.03;;
5811;SDS011;2932;52.400;9.558;2023-12-20T05:22:01;11.60;;;2.70;;
5811;SDS011;2932;52.400;9.558;2023-12-20T05:24:27;5.17;;;2.03;;
5811;SDS011;2932;52.400;9.558;2023-12-20T05:26:52;8.97;;;2.30;;
5811;SDS011;2932;52.400;9.558;2023-12-20T05:29:18;7.43;;;2.20;;
5811;SDS011;2932;52.400;9.558;2023-12-20T05:31:43;9.83;;;2.23;;
5811;SDS011;2932;52.400;9.558;2023-12-20T05:34:08;6.30;;;1.90;;
5811;SDS011;2932;52.400;9.558;2023-12-20T05:36:34;10.57;;;3.50;;
5811;SDS011;2932;52.400;9.558;2023-12-20T05:39:01;10.10;;;2.60;;
5811;SDS011;2932;52.400;9.558;2023-12-20T05:41:26;8.30;;;2.33;;
5811;SDS011;2932;52.400;9.558;2023-12-20T05:43:52;13.53;;;2.73;;
5811;SDS011;2932;52.400;9.558;2023-12-20T05:46:17;12.63;;;3.03;;
5811;SDS011;2932;52.400;9.558;2023-12-20T05:48:42;8.17;;;2.17;;
5811;SDS011;2932;52.400;9.558;2023-12-20T05:51:07;9.77;;;2.83;;
5811;SDS011;2932;52.400;9.558;2023-12-20T05:53:36;4.97;;;2.10;;
5811;SDS011;2932;52.400;9.558;2023-12-20T05:56:01;10.93;;;2.97;;
5811;SDS011;2932;52.400;9.558;2023-12-20T05:58:27;11.60;;;2.93;;
5811;SDS011;2932;52.400;9.558;2023-12-20T06:00:52;8.77;;;2.90;;
5811;SDS011;2932;52.400;9.558;2023-12-20T06:03:18;5.77;;;1.93;;
5811;SDS011;2932;52.400;9.558;2023-12-20T06:05:43;7.80;;;2.40;;
5811;SDS011;2932;52.400;9.558;2023-12-20T06:08:08;7.10;;;2.23;;
5811;SDS011;2932;52.400;9.558;2023-12-20T06:10:33;8.00;;;2.50;;
5811;SDS011;2932;52.400;9.558;2023-12-20T06:12:59;6.87;;;2.40;;
5811;SDS011;2932;52.400;9.558;2023-12-20T06:15:25;11.37;;;2.23;;
5811;SDS011;2932;52.400;9.558;2023-12-20T06:17:51;7.17;;;2.60;;
5811;SDS011;2932;52.400;9.558;2023-12-20T06:20:16;8.83;;;2.33;;
5811;SDS011;2932;52.400;9.558;2023-12-20T06:22:42;11.37;;;2.80;;
5811;SDS011;2932;52.400;9.558;2023-12-20T06:25:07;11.70;;;2.50;;
5811;SDS011;2932;52.400;9.558;2023-12-20T06:27:33;10.07;;;2.87;;
5811;SDS011;2932;52.400;9.558;2023-12-20T06:29:58;18.30;;;2.93;;
5811;SDS011;2932;52.400;9.558;2023-12-20T06:32:24;10.23;;;2.67;;
5811;SDS011;2932;52.400;9.558;2023-12-20T06:34:49;11.10;;;2.70;;
5811;SDS011;2932;52.400;9.558;2023-12-20T06:37:15;11.53;;;2.90;;
5811;SDS011;2932;52.400;9.558;2023-12-20T06:39:40;8.37;;;3.00;;
5811;SDS011;2932;52.400;9.558;2023-12-20T06:42:06;8.43;;;2.63;;
5811;SDS011;2932;52.400;9.558;2023-12-20T06:44:31;10.60;;;2.73;;
5811;SDS011;2932;52.400;9.558;2023-12-20T06:46:57;11.97;;;2.63;;
5811;SDS011;2932;52.400;9.558;2023-12-20T06:49:22;11.13;;;2.47;;
5811;SDS011;2932;52.400;9.558;2023-12-20T06:51:48;12.43;;;2.87;;
5811;SDS011;2932;52.400;9.558;2023-12-20T06:54:13;16.57;;;3.17;;
5811;SDS011;2932;52.400;9.558;2023-12-20T06:56:38;8.47;;;2.73;;
5811;SDS011;2932;52.400;9.558;2023-12-20T06:59:04;14.63;;;2.60;;
5811;SDS011;2932;52.400;9.558;2023-12-20T07:01:29;16.70;;;2.63;;
5811;SDS011;2932;52.400;9.558;2023-12-20T07:03:54;9.77;;;2.70;;
5811;SDS011;2932;52.400;9.558;2023-12-20T07:06:20;15.37;;;3.13;;
5811;SDS011;2932;52.400;9.558;2023-12-20T07:08:45;9.87;;;2.83;;
5811;SDS011;2932;52.400;9.558;2023-12-20T07:11:11;13.10;;;2.90;;
5811;SDS011;2932;52.400;9.558;2023-12-20T07:13:36;9.40;;;2.20;;
5811;SDS011;2932;52.400;9.558;2023-12-20T07:16:02;12.27;;;2.60;;
5811;SDS011;2932;52.400;9.558;2023-12-20T07:18:27;8.73;;;2.33;;
5811;SDS011;2932;52.400;9.558;2023-12-20T07:20:53;11.33;;;2.40;;
5811;SDS011;2932;52.400;9.558;2023-12-20T07:23:19;11.37;;;3.30;;
5811;SDS011;2932;52.400;9.558;2023-12-20T07:25:45;8.80;;;2.00;;
5811;SDS011;2932;52.400;9.558;2023-12-20T07:28:10;12.80;;;2.53;;
5811;SDS011;2932;52.400;9.558;2023-12-20T07:30:36;11.27;;;2.73;;
5811;SDS011;2932;52.400;9.558;2023-12-20T07:33:01;14.67;;;3.17;;
5811;SDS011;2932;52.400;9.558;2023-12-20T07:35:27;11.80;;;2.57;;
5811;SDS011;2932;52.400;9.558;2023-12-20T07:37:53;11.37;;;3.00;;
5811;SDS011;2932;52.400;9.558;2023-12-20T07:40:18;10.00;;;2.73;;
5811;SDS011;2932;52.400;9.558;2023-12-20T07:42:43;9.63;;;2.40;;
5811;SDS011;2932;52.400;9.558;2023-12-20T07:45:09;14.37;;;2.20;;
5811;SDS011;2932;52.400;9.558;2023-12-20T07:47:35;7.77;;;2.27;;
5811;SDS011;2932;52.400;9.558;2023-12-20T07:50:01;13.33;;;2.93;;
5811;SDS011;2932;52.400;9.558;2023-12-20T07:52:27;13.13;;;2.93;;
5811;SDS011;2932;52.400;9.558;2023-12-20T07:54:53;12.73;;;2.63;;
5811;SDS011;2932;52.400;9.558;2023-12-20T07:57:19;11.73;;;2.50;;
5811;SDS011;2932;52.400;9.558;2023-12-20T07:59:44;12.83;;;2.97;;
5811;SDS011;2932;52.400;9.558;2023-12-20T08:02:10;12.40;;;3.27;;
5811;SDS011;2932;52.400;9.558;2023-12-20T08:04:35;10.70;;;2.77;;
5811;SDS011;2932;52.400;9.558;2023-12-20T08:07:00;8.40;;;2.73;;
5811;SDS011;2932;52.400;9.558;2023-12-20T08:09:26;10.33;;;2.90;;
5811;SDS011;2932;52.400;9.558;2023-12-20T08:11:54;10.07;;;2.90;;
5811;SDS011;2932;52.400;9.558;2023-12-20T08:14:19;14.00;;;3.07;;
5811;SDS011;2932;52.400;9.558;2023-12-20T08:16:45;11.33;;;3.67;;
5811;SDS011;2932;52.400;9.558;2023-12-20T08:19:11;13.07;;;3.37;;
5811;SDS011;2932;52.400;9.558;2023-12-20T08:21:39;15.97;;;3.67;;
5811;SDS011;2932;52.400;9.558;2023-12-20T08:24:05;15.83;;;3.23;;
5811;SDS011;2932;52.400;9.558;2023-12-20T08:26:32;18.43;;;3.70;;
5811;SDS011;2932;52.400;9.558;2023-12-20T08:28:58;13.33;;;3.53;;
5811;SDS011;2932;52.400;9.558;2023-12-20T08:31:23;10.80;;;2.63;;
5811;SDS011;2932;52.400;9.558;2023-12-20T08:33:49;10.23;;;2.87;;
5811;SDS011;2932;52.400;9.558;2023-12-20T08:36:15;11.77;;;3.70;;
5811;SDS011;2932;52.400;9.558;2023-12-20T08:38:42;10.60;;;3.23;;
5811;SDS011;2932;52.400;9.558;2023-12-20T08:41:08;10.50;;;3.47;;
5811;SDS011;2932;52.400;9.558;2023-12-20T08:43:34;9.03;;;2.90;;
5811;SDS011;2932;52.400;9.558;2023-12-20T08:46:00;10.97;;;2.97;;
5811;SDS011;2932;52.400;9.558;2023-12-20T08:48:26;17.10;;;3.83;;
5811;SDS011;2932;52.400;9.558;2023-12-20T08:50:51;9.13;;;2.63;;
5811;SDS011;2932;52.400;9.558;2023-12-20T08:53:17;12.57;;;3.07;;
5811;SDS011;2932;52.400;9.558;2023-12-20T08:55:43;12.63;;;3.67;;
5811;SDS011;2932;52.400;9.558;2023-12-20T08:58:08;11.03;;;3.43;;
5811;SDS011;2932;52.400;9.558;2023-12-20T09:00:34;7.40;;;2.67;;
5811;SDS011;2932;52.400;9.558;2023-12-20T09:02:59;12.70;;;2.90;;
5811;SDS011;2932;52.400;9.558;2023-12-20T09:05:26;10.47;;;2.67;;
5811;SDS011;2932;52.400;9.558;2023-12-20T09:07:51;14.13;;;3.23;;
5811;SDS011;2932;52.400;9.558;2023-12-20T09:10:16;12.60;;;3.67;;
5811;SDS011;2932;52.400;9.558;2023-12-20T09:12:46;10.10;;;2.67;;
5811;SDS011;2932;52.400;9.558;2023-12-20T09:15:12;14.37;;;3.33;;
5811;SDS011;2932;52.400;9.558;2023-12-20T09:17:38;11.13;;;2.50;;
5811;SDS011;2932;52.400;9.558;2023-12-20T09:20:05;16.00;;;3.90;;
5811;SDS011;2932;52.400;9.558;2023-12-20T09:22:32;8.93;;;2.63;;
5811;SDS011;2932;52.400;9.558;2023-12-20T09:24:58;6.67;;;2.90;;
5811;SDS011;2932;52.400;9.558;2023-12-20T09:27:24;8.67;;;2.27;;
5811;SDS011;2932;52.400;9.558;2023-12-20T09:29:49;4.33;;;2.63;;
5811;SDS011;2932;52.400;9.558;2023-12-20T09:32:14;10.67;;;2.57;;
5811;SDS011;2932;52.400;9.558;2023-12-20T09:34:40;9.53;;;3.10;;
5811;SDS011;2932;52.400;9.558;2023-12-20T09:37:06;11.67;;;2.93;;
5811;SDS011;2932;52.400;9.558;2023-12-20T09:39:32;12.93;;;2.90;;
5811;SDS011;2932;52.400;9.558;2023-12-20T09:42:02;12.23;;;2.60;;
5811;SDS011;2932;52.400;9.558;2023-12-20T09:44:31;10.50;;;2.80;;
5811;SDS011;2932;52.400;9.558;2023-12-20T09:46:58;9.13;;;2.77;;
5811;SDS011;2932;52.400;9.558;2023-12-20T09:49:23;7.97;;;2.10;;
5811;SDS011;2932;52.400;9.558;2023-12-20T09:51:52;10.03;;;2.40;;
5811;SDS011;2932;52.400;9.558;2023-12-20T09:54:19;13.30;;;3.13;;
5811;SDS011;2932;52.400;9.558;2023-12-20T09:56:45;12.07;;;2.77;;
5811;SDS011;2932;52.400;9.558;2023-12-20T09:59:11;9.83;;;2.37;;
5811;SDS011;2932;52.400;9.558;2023-12-20T10:01:36;8.33;;;2.67;;
5811;SDS011;2932;52.400;9.558;2023-12-20T10:04:10;13.27;;;3.07;;
5811;SDS011;2932;52.400;9.558;2023-12-20T10:06:39;7.17;;;2.27;;
5811;SDS011;2932;52.400;9.558;2023-12-20T10:09:08;8.13;;;2.43;;
5811;SDS011;2932;52.400;9.558;2023-12-20T10:11:34;9.77;;;3.20;;
5811;SDS011;2932;52.400;9.558;2023-12-20T10:14:02;10.13;;;2.37;;
5811;SDS011;2932;52.400;9.558;2023-12-20T10:16:28;12.30;;;3.60;;
5811;SDS011;2932;52.400;9.558;2023-12-20T10:18:54;10.83;;;2.30;;
5811;SDS011;2932;52.400;9.558;2023-12-20T10:21:21;11.37;;;2.70;;
5811;SDS011;2932;52.400;9.558;2023-12-20T10:23:47;8.50;;;2.30;;
5811;SDS011;2932;52.400;9.558;2023-12-20T10:28:50;6.77;;;2.50;;
5811;SDS011;2932;52.400;9.558;2023-12-20T10:31:26;7.77;;;2.90;;
5811;SDS011;2932;52.400;9.558;2023-12-20T10:33:52;11.93;;;2.90;;
5811;SDS011;2932;52.400;9.558;2023-12-20T10:36:17;9.87;;;2.90;;
5811;SDS011;2932;52.400;9.558;2023-12-20T10:38:42;12.30;;;3.37;;
5811;SDS011;2932;52.400;9.558;2023-12-20T10:41:09;6.90;;;2.47;;
5811;SDS011;2932;52.400;9.558;2023-12-20T10:43:35;12.80;;;2.60;;
5811;SDS011;2932;52.400;9.558;2023-12-20T10:46:03;12.60;;;3.10;;
5811;SDS011;2932;52.400;9.558;2023-12-20T10:48:28;7.17;;;2.40;;
5811;SDS011;2932;52.400;9.558;2023-12-20T10:50:55;9.73;;;3.17;;
5811;SDS011;2932;52.400;9.558;2023-12-20T10:53:21;13.20;;;2.93;;
5811;SDS011;2932;52.400;9.558;2023-12-20T10:55:47;6.87;;;2.80;;
5811;SDS011;2932;52.400;9.558;2023-12-20T10:58:15;9.27;;;2.67;;
5811;SDS011;2932;52.400;9.558;2023-12-20T11:00:44;9.03;;;3.23;;
5811;SDS011;2932;52.400;9.558;2023-12-20T11:03:12;10.50;;;2.90;;
5811;SDS011;2932;52.400;9.558;2023-12-20T11:05:43;10.27;;;3.27;;
5811;SDS011;2932;52.400;9.558;2023-12-20T11:08:19;12.00;;;2.60;;
5811;SDS011;2932;52.400;9.558;2023-12-20T11:13:48;9.67;;;2.57;;
5811;SDS011;2932;52.400;9.558;2023-12-20T11:16:26;6.67;;;2.40;;
5811;SDS011;2932;52.400;9.558;2023-12-20T11:18:52;11.10;;;3.47;;
5811;SDS011;2932;52.400;9.558;2023-12-20T11:21:17;7.20;;;2.43;;
5811;SDS011;2932;52.400;9.558;2023-12-20T11:23:43;7.37;;;2.60;;
5811;SDS011;2932;52.400;9.558;2023-12-20T11:26:08;9.83;;;2.50;;
5811;SDS011;2932;52.400;9.558;2023-12-20T11:28:33;9.40;;;3.30;;
5811;SDS011;2932;52.400;9.558;2023-12-20T11:31:00;11.70;;;3.33;;
5811;SDS011;2932;52.400;9.558;2023-12-20T11:33:27;9.73;;;3.60;;
5811;SDS011;2932;52.400;9.558;2023-12-20T11:35:58;11.57;;;4.10;;
5811;SDS011;2932;52.400;9.558;2023-12-20T11:38:24;6.43;;;2.00;;
5811;SDS011;2932;52.400;9.558;2023-12-20T11:40:50;4.30;;;1.30;;
5811;SDS011;2932;52.400;9.558;2023-12-20T11:43:40;2.40;;;0.80;;
5811;SDS011;2932;52.400;9.558;2023-12-20T11:46:08;3.83;;;1.00;;
5811;SDS011;2932;52.400;9.558;2023-12-20T11:48:34;4.30;;;0.67;;
5811;SDS011;2932;52.400;9.558;2023-12-20T11:51:01;2.77;;;0.80;;
5811;SDS011;2932;52.400;9.558;2023-12-20T11:53:28;1.93;;;0.90;;
5811;SDS011;2932;52.400;9.558;2023-12-20T11:55:56;1.30;;;0.40;;
5811;SDS011;2932;52.400;9.558;2023-12-20T11:58:21;2.83;;;0.77;;
5811;SDS011;2932;52.400;9.558;2023-12-20T12:00:48;2.73;;;0.47;;
5811;SDS011;2932;52.400;9.558;2023-12-20T12:03:14;1.30;;;0.60;;
5811;SDS011;2932;52.400;9.558;2023-12-20T12:05:40;1.73;;;0.40;;
5811;SDS011;2932;52.400;9.558;2023-12-20T12:08:06;4.03;;;0.43;;
5811;SDS011;2932;52.400;9.558;2023-12-20T12:10:32;2.33;;;0.50;;
5811;SDS011;2932;52.400;9.558;2023-12-20T12:12:58;2.70;;;0.40;;
5811;SDS011;2932;52.400;9.558;2023-12-20T12:15:23;0.60;;;0.40;;
5811;SDS011;2932;52.400;9.558;2023-12-20T12:17:56;1.03;;;0.57;;
5811;SDS011;2932;52.400;9.558;2023-12-20T12:20:22;3.00;;;0.60;;
5811;SDS011;2932;52.400;9.558;2023-12-20T12:23:09;2.40;;;0.63;;
5811;SDS011;2932;52.400;9.558;2023-12-20T12:25:35;3.77;;;0.40;;
5811;SDS011;2932;52.400;9.558;2023-12-20T12:28:01;3.30;;;0.40;;
5811;SDS011;2932;52.400;9.558;2023-12-20T12:30:27;5.23;;;0.63;;
5811;SDS011;2932;52.400;9.558;2023-12-20T12:32:53;3.03;;;0.80;;
5811;SDS011;2932;52.400;9.558;2023-12-20T12:35:19;2.87;;;0.83;;
5811;SDS011;2932;52.400;9.558;2023-12-20T12:37:45;2.20;;;0.60;;
5811;SDS011;2932;52.400;9.558;2023-12-20T12:40:14;2.07;;;0.50;;
5811;SDS011;2932;52.400;9.558;2023-12-20T12:42:41;2.87;;;0.50;;
5811;SDS011;2932;52.400;9.558;2023-12-20T12:45:08;0.70;;;0.40;;
5811;SDS011;2932;52.400;9.558;2023-12-20T12:47:34;0.90;;;0.53;;
5811;SDS011;2932;52.400;9.558;2023-12-20T12:50:00;1.47;;;0.60;;
5811;SDS011;2932;52.400;9.558;2023-12-20T12:52:25;2.13;;;1.00;;
5811;SDS011;2932;52.400;9.558;2023-12-20T12:54:52;1.77;;;0.83;;
5811;SDS011;2932;52.400;9.558;2023-12-20T12:57:17;3.53;;;0.80;;
5811;SDS011;2932;52.400;9.558;2023-12-20T12:59:44;2.97;;;0.70;;
5811;SDS011;2932;52.400;9.558;2023-12-20T13:02:11;2.87;;;0.80;;
5811;SDS011;2932;52.400;9.558;2023-12-20T13:04:36;2.40;;;1.03;;
5811;SDS011;2932;52.400;9.558;2023-12-20T13:07:02;2.03;;;0.60;;
5811;SDS011;2932;52.400;9.558;2023-12-20T13:09:27;1.27;;;0.60;;
5811;SDS011;2932;52.400;9.558;2023-12-20T13:11:52;0.67;;;0.50;;
5811;SDS011;2932;52.400;9.558;2023-12-20T13:14:18;3.40;;;0.93;;
5811;SDS011;2932;52.400;9.558;2023-12-20T13:16:43;2.17;;;0.93;;
5811;SDS011;2932;52.400;9.558;2023-12-20T13:19:10;4.70;;;0.80;;
5811;SDS011;2932;52.400;9.558;2023-12-20T13:21:35;4.40;;;0.63;;
5811;SDS011;2932;52.400;9.558;2023-12-20T13:24:01;1.83;;;0.90;;
5811;SDS011;2932;52.400;9.558;2023-12-20T13:26:26;5.10;;;0.73;;
5811;SDS011;2932;52.400;9.558;2023-12-20T13:28:52;3.40;;;0.97;;
5811;SDS011;2932;52.400;9.558;2023-12-20T13:31:17;3.37;;;0.67;;
5811;SDS011;2932;52.400;9.558;2023-12-20T13:33:42;2.67;;;0.90;;
5811;SDS011;2932;52.400;9.558;2023-12-20T13:36:07;3.17;;;1.07;;
5811;SDS011;2932;52.400;9.558;2023-12-20T13:38:33;3.27;;;1.00;;
5811;SDS011;2932;52.400;9.558;2023-12-20T13:40:59;4.33;;;0.70;;
5811;SDS011;2932;52.400;9.558;2023-12-20T13:43:25;2.33;;;0.80;;
5811;SDS011;2932;52.400;9.558;2023-12-20T13:45:50;5.10;;;0.60;;
5811;SDS011;2932;52.400;9.558;2023-12-20T13:48:16;2.60;;;0.60;;
5811;SDS011;2932;52.400;9.558;2023-12-20T13:50:41;3.77;;;0.87;;
5811;SDS011;2932;52.400;9.558;2023-12-20T13:53:07;2.63;;;0.87;;
5811;SDS011;2932;52.400;9.558;2023-12-20T13:55:32;2.10;;;0.70;;
5811;SDS011;2932;52.400;9.558;2023-12-20T13:57:57;9.20;;;1.27;;
5811;SDS011;2932;52.400;9.558;2023-12-20T14:00:23;3.63;;;0.90;;
5811;SDS011;2932;52.400;9.558;2023-12-20T14:02:48;5.90;;;2.20;;
5811;SDS011;2932;52.400;9.558;2023-12-20T14:05:14;3.47;;;0.90;;
5811;SDS011;2932;52.400;9.558;2023-12-20T14:07:42;4.27;;;1.20;;
5811;SDS011;2932;52.400;9.558;2023-12-20T14:10:09;2.87;;;0.90;;
5811;SDS011;2932;52.400;9.558;2023-12-20T14:12:36;5.97;;;1.37;;
5811;SDS011;2932;52.400;9.558;2023-12-20T14:15:03;3.70;;;0.90;;
5811;SDS011;2932;52.400;9.558;2023-12-20T14:17:28;5.83;;;1.17;;
5811;SDS011;2932;52.400;9.558;2023-12-20T14:19:54;4.60;;;1.73;;
5811;SDS011;2932;52.400;9.558;2023-12-20T14:22:19;3.67;;;1.00;;
5811;SDS011;2932;52.400;9.558;2023-12-20T14:24:45;2.43;;;0.87;;
5811;SDS011;2932;52.400;9.558;2023-12-20T14:27:10;4.90;;;1.30;;
5811;SDS011;2932;52.400;9.558;2023-12-20T14:29:36;4.20;;;1.10;;
5811;SDS011;2932;52.400;9.558;2023-12-20T14:32:02;4.53;;;1.20;;
5811;SDS011;2932;52.400;9.558;2023-12-20T14:34:29;5.33;;;1.17;;
5811;SDS011;2932;52.400;9.558;2023-12-20T14:36:54;6.67;;;1.60;;
5811;SDS011;2932;52.400;9.558;2023-12-20T14:39:20;6.33;;;1.27;;
5811;SDS011;2932;52.400;9.558;2023-12-20T14:41:46;5.57;;;1.33;;
5811;SDS011;2932;52.400;9.558;2023-12-20T14:44:11;14.03;;;1.70;;
5811;SDS011;2932;52.400;9.558;2023-12-20T14:46:36;5.80;;;1.73;;
5811;SDS011;2932;52.400;9.558;2023-12-20T14:49:02;5.17;;;1.90;;
5811;SDS011;2932;52.400;9.558;2023-12-20T14:51:28;4.17;;;0.80;;
5811;SDS011;2932;52.400;9.558;2023-12-20T14:53:53;5.20;;;1.30;;
5811;SDS011;2932;52.400;9.558;2023-12-20T14:56:19;4.70;;;1.93;;
5811;SDS011;2932;52.400;9.558;2023-12-20T14:58:45;6.60;;;2.10;;
5811;SDS011;2932;52.400;9.558;2023-12-20T15:01:10;4.60;;;1.13;;
5811;SDS011;2932;52.400;9.558;2023-12-20T15:03:36;5.50;;;0.97;;
5811;SDS011;2932;52.400;9.558;2023-12-20T15:06:01;10.17;;;1.60;;
5811;SDS011;2932;52.400;9.558;2023-12-20T15:08:27;7.80;;;1.10;;
5811;SDS011;2932;52.400;9.558;2023-12-20T15:10:52;4.10;;;1.10;;